Klamath Falls Airport
KLMT : now visible

Airfield :











YOU CAN JOIN US ON...

 
LOGIN :

Register | Disclaimer

   EN    FR    IT 

 









Legend :    VFR   Marginal VFR   IFR   Intensive IFR   Very Intensive IFR
Visi :
Ceiling :
>= 8 km
>= 3000ft
5 to 8 km
1000 to 3000 ft
1500m to 5 km
500 to 1000 ft
800 to 1500m
200 to 500 ft
< 800m
< 200 ft
Symbols :   Thunderstorms  Fog  Heavy snow  Heavy precipitations  Wind > 20 kt







- Airport Elevation : 4095 ft
- IATA code : LMT


KLMT - Klamath Falls

CURRENT METAR :
  • 260353Z AUTO 32008KT 10SM CLR 22/08 A3015 RMK AO2 SLP169 T02170078

EXPIRED METARs :
  • 260253Z 34010KT 10SM CLR 24/06 A3013 RMK AO2 SLP166 LAST T02440056 53007
  • 260153Z 35012KT 10SM CLR 27/06 A3012 RMK AO2 SLP167 T02720056

TAF KLMT
Valid from the 26 at 00:00 until the 27 at 00:00 UTC


252347Z 2600/2624 33010KT P6SM SKC
FM260500 VRB03KT P6SM SKC
No reported NOTAMs for that airfield.



MET'MAP, your aeronautical weather chart ! - Copyright ORBIFLY December 2007 - Disclaimer

ORBIFLY MET'MAP TEAM :

Programming & Development : Alexandra Zaïnal
Concept & Development : Baudouin d'Aumeries
Co-Development & Prog : Marc-Olivier Méhu
Technical & hardware support : Manuel Goepfert

Contact : metmap@orbifly.com




SOURCES & CREDITS :

   NOAA       Earth
Advisory